sensor_id;sensor_type;location;lat;lon;timestamp;pressure;altitude;pressure_sealevel;temperature;humidity
66703;BME280;60933;46.398;-63.798;2022-11-20T00:00:13;101927.78;;;-4.86;59.55
66703;BME280;60933;46.398;-63.798;2022-11-20T00:02:39;101945.88;;;-4.78;60.33
66703;BME280;60933;46.398;-63.798;2022-11-20T00:05:05;101950.91;;;-4.78;60.10
66703;BME280;60933;46.398;-63.798;2022-11-20T00:07:32;101940.66;;;-4.81;59.26
66703;BME280;60933;46.398;-63.798;2022-11-20T00:09:58;101946.47;;;-4.82;60.03
66703;BME280;60933;46.398;-63.798;2022-11-20T00:12:24;101935.25;;;-4.87;59.05
66703;BME280;60933;46.398;-63.798;2022-11-20T00:14:50;101948.81;;;-4.85;60.21
66703;BME280;60933;46.398;-63.798;2022-11-20T00:17:16;101942.81;;;-4.87;59.67
66703;BME280;60933;46.398;-63.798;2022-11-20T00:19:42;101940.16;;;-4.90;59.78
66703;BME280;60933;46.398;-63.798;2022-11-20T00:22:08;101943.44;;;-4.91;59.54
66703;BME280;60933;46.398;-63.798;2022-11-20T00:24:34;101943.34;;;-4.93;59.44
66703;BME280;60933;46.398;-63.798;2022-11-20T00:27:00;101948.28;;;-4.95;60.27
66703;BME280;60933;46.398;-63.798;2022-11-20T00:29:26;101946.53;;;-4.96;59.03
66703;BME280;60933;46.398;-63.798;2022-11-20T00:31:52;101948.22;;;-4.96;59.57
66703;BME280;60933;46.398;-63.798;2022-11-20T00:34:18;101937.25;;;-4.97;62.58
66703;BME280;60933;46.398;-63.798;2022-11-20T00:36:44;101933.00;;;-4.98;63.22
66703;BME280;60933;46.398;-63.798;2022-11-20T00:39:10;101935.34;;;-5.01;61.75
66703;BME280;60933;46.398;-63.798;2022-11-20T00:41:36;101932.91;;;-4.99;61.64
66703;BME280;60933;46.398;-63.798;2022-11-20T00:44:02;101932.91;;;-4.99;61.39
66703;BME280;60933;46.398;-63.798;2022-11-20T00:46:28;101930.31;;;-5.01;61.37
66703;BME280;60933;46.398;-63.798;2022-11-20T00:48:54;101931.09;;;-5.02;59.99
66703;BME280;60933;46.398;-63.798;2022-11-20T00:51:23;101934.22;;;-5.06;60.11
66703;BME280;60933;46.398;-63.798;2022-11-20T00:53:49;101940.97;;;-5.05;59.85
66703;BME280;60933;46.398;-63.798;2022-11-20T00:56:18;101941.78;;;-5.06;59.73
66703;BME280;60933;46.398;-63.798;2022-11-20T00:58:46;101928.81;;;-5.12;59.78
66703;BME280;60933;46.398;-63.798;2022-11-20T01:01:21;101922.03;;;-5.13;59.83
66703;BME280;60933;46.398;-63.798;2022-11-20T01:03:51;101915.34;;;-5.13;60.16
66703;BME280;60933;46.398;-63.798;2022-11-20T01:06:19;101910.06;;;-5.17;61.99
66703;BME280;60933;46.398;-63.798;2022-11-20T01:08:47;101920.66;;;-5.08;60.92
66703;BME280;60933;46.398;-63.798;2022-11-20T01:11:21;101915.63;;;-5.08;60.46
66703;BME280;60933;46.398;-63.798;2022-11-20T01:13:48;101912.16;;;-5.10;60.44
66703;BME280;60933;46.398;-63.798;2022-11-20T01:16:18;101913.03;;;-5.10;60.24
66703;BME280;60933;46.398;-63.798;2022-11-20T01:18:47;101918.16;;;-5.08;60.48
66703;BME280;60933;46.398;-63.798;2022-11-20T01:21:17;101922.22;;;-5.10;59.57
66703;BME280;60933;46.398;-63.798;2022-11-20T01:23:44;101927.25;;;-5.10;59.82
66703;BME280;60933;46.398;-63.798;2022-11-20T01:26:24;101925.44;;;-5.13;59.48
66703;BME280;60933;46.398;-63.798;2022-11-20T01:28:50;101917.59;;;-5.17;60.26
66703;BME280;60933;46.398;-63.798;2022-11-20T01:31:24;101905.44;;;-5.25;59.91
66703;BME280;60933;46.398;-63.798;2022-11-20T01:33:52;101913.00;;;-5.25;59.85
66703;BME280;60933;46.398;-63.798;2022-11-20T01:36:20;101895.59;;;-5.35;62.02
66703;BME280;60933;46.398;-63.798;2022-11-20T01:38:47;101907.41;;;-5.34;61.32
66703;BME280;60933;46.398;-63.798;2022-11-20T01:41:14;101912.53;;;-5.32;60.21
66703;BME280;60933;46.398;-63.798;2022-11-20T01:44:01;101904.03;;;-5.34;60.18
66703;BME280;60933;46.398;-63.798;2022-11-20T01:46:27;101905.88;;;-5.32;60.63
66703;BME280;60933;46.398;-63.798;2022-11-20T01:49:11;101886.22;;;-5.37;60.87
66703;BME280;60933;46.398;-63.798;2022-11-20T01:51:51;101878.88;;;-5.34;61.66
66703;BME280;60933;46.398;-63.798;2022-11-20T01:54:24;101882.25;;;-5.34;61.29
66703;BME280;60933;46.398;-63.798;2022-11-20T01:56:52;101879.56;;;-5.37;60.82
66703;BME280;60933;46.398;-63.798;2022-11-20T01:59:21;101876.16;;;-5.37;60.73
66703;BME280;60933;46.398;-63.798;2022-11-20T02:01:48;101880.50;;;-5.35;61.04
66703;BME280;60933;46.398;-63.798;2022-11-20T02:04:15;101872.00;;;-5.37;60.48
66703;BME280;60933;46.398;-63.798;2022-11-20T02:06:58;101877.13;;;-5.35;62.16
66703;BME280;60933;46.398;-63.798;2022-11-20T02:09:26;101877.22;;;-5.34;62.75
66703;BME280;60933;46.398;-63.798;2022-11-20T02:11:52;101860.19;;;-5.38;61.50
66703;BME280;60933;46.398;-63.798;2022-11-20T02:14:19;101863.84;;;-5.33;61.00
66703;BME280;60933;46.398;-63.798;2022-11-20T02:16:48;101856.50;;;-5.30;60.77
66703;BME280;60933;46.398;-63.798;2022-11-20T02:19:30;101857.41;;;-5.28;61.70
66703;BME280;60933;46.398;-63.798;2022-11-20T02:22:02;101858.47;;;-5.24;61.16
66703;BME280;60933;46.398;-63.798;2022-11-20T02:24:31;101850.25;;;-5.21;62.56
66703;BME280;60933;46.398;-63.798;2022-11-20T02:27:01;101852.94;;;-5.18;62.64
66703;BME280;60933;46.398;-63.798;2022-11-20T02:29:35;101851.44;;;-5.15;62.11
66703;BME280;60933;46.398;-63.798;2022-11-20T02:32:03;101855.28;;;-5.06;61.25
66703;BME280;60933;46.398;-63.798;2022-11-20T02:34:29;101841.72;;;-5.09;62.66
66703;BME280;60933;46.398;-63.798;2022-11-20T02:36:56;101827.56;;;-5.06;62.61
66703;BME280;60933;46.398;-63.798;2022-11-20T02:39:25;101834.97;;;-4.95;62.79
66703;BME280;60933;46.398;-63.798;2022-11-20T02:41:54;101832.06;;;-4.86;62.58
66703;BME280;60933;46.398;-63.798;2022-11-20T02:44:21;101828.25;;;-4.79;63.58
66703;BME280;60933;46.398;-63.798;2022-11-20T02:46:47;101832.06;;;-4.71;62.57
66703;BME280;60933;46.398;-63.798;2022-11-20T02:49:13;101834.91;;;-4.65;63.09
66703;BME280;60933;46.398;-63.798;2022-11-20T02:51:39;101835.25;;;-4.58;64.39
66703;BME280;60933;46.398;-63.798;2022-11-20T02:54:05;101834.66;;;-4.54;63.21
66703;BME280;60933;46.398;-63.798;2022-11-20T02:56:31;101830.72;;;-4.49;62.87
66703;BME280;60933;46.398;-63.798;2022-11-20T02:58:57;101817.25;;;-4.50;63.47
66703;BME280;60933;46.398;-63.798;2022-11-20T03:01:23;101817.06;;;-4.38;62.73
66703;BME280;60933;46.398;-63.798;2022-11-20T03:03:49;101816.50;;;-4.32;63.85
66703;BME280;60933;46.398;-63.798;2022-11-20T03:06:16;101815.00;;;-4.29;63.83
66703;BME280;60933;46.398;-63.798;2022-11-20T03:08:43;101809.34;;;-4.24;62.82
66703;BME280;60933;46.398;-63.798;2022-11-20T03:11:09;101807.84;;;-4.21;63.75
66703;BME280;60933;46.398;-63.798;2022-11-20T03:13:35;101799.75;;;-4.15;63.98
66703;BME280;60933;46.398;-63.798;2022-11-20T03:16:05;101804.22;;;-4.09;65.03
66703;BME280;60933;46.398;-63.798;2022-11-20T03:18:31;101801.88;;;-4.06;64.30
66703;BME280;60933;46.398;-63.798;2022-11-20T03:20:57;101804.72;;;-4.00;65.68
66703;BME280;60933;46.398;-63.798;2022-11-20T03:23:25;101805.84;;;-3.95;65.17
66703;BME280;60933;46.398;-63.798;2022-11-20T03:25:51;101806.22;;;-3.87;66.48
66703;BME280;60933;46.398;-63.798;2022-11-20T03:28:17;101807.41;;;-3.80;66.40
66703;BME280;60933;46.398;-63.798;2022-11-20T03:30:43;101802.81;;;-3.71;69.01
66703;BME280;60933;46.398;-63.798;2022-11-20T03:33:11;101797.94;;;-3.68;68.13
66703;BME280;60933;46.398;-63.798;2022-11-20T03:35:37;101803.44;;;-3.59;67.78
66703;BME280;60933;46.398;-63.798;2022-11-20T03:38:03;101804.59;;;-3.52;69.90
66703;BME280;60933;46.398;-63.798;2022-11-20T03:40:29;101800.66;;;-3.47;68.57
66703;BME280;60933;46.398;-63.798;2022-11-20T03:42:55;101785.75;;;-3.42;68.92
66703;BME280;60933;46.398;-63.798;2022-11-20T03:45:21;101792.66;;;-3.38;69.64
66703;BME280;60933;46.398;-63.798;2022-11-20T03:47:47;101786.91;;;-3.36;70.35
66703;BME280;60933;46.398;-63.798;2022-11-20T03:50:13;101788.25;;;-3.26;70.74
66703;BME280;60933;46.398;-63.798;2022-11-20T03:52:39;101766.34;;;-3.25;71.27
66703;BME280;60933;46.398;-63.798;2022-11-20T03:55:07;101777.69;;;-3.17;69.58
66703;BME280;60933;46.398;-63.798;2022-11-20T03:57:33;101776.13;;;-3.15;70.53
66703;BME280;60933;46.398;-63.798;2022-11-20T03:59:59;101777.25;;;-3.08;70.36
66703;BME280;60933;46.398;-63.798;2022-11-20T04:02:25;101772.38;;;-3.05;72.13
66703;BME280;60933;46.398;-63.798;2022-11-20T04:04:51;101766.88;;;-2.96;74.57
66703;BME280;60933;46.398;-63.798;2022-11-20T04:07:17;101767.66;;;-2.97;71.62
66703;BME280;60933;46.398;-63.798;2022-11-20T04:09:43;101763.63;;;-2.94;72.93
66703;BME280;60933;46.398;-63.798;2022-11-20T04:12:09;101758.66;;;-2.92;72.93
66703;BME280;60933;46.398;-63.798;2022-11-20T04:14:35;101758.22;;;-2.83;75.38
66703;BME280;60933;46.398;-63.798;2022-11-20T04:17:01;101755.84;;;-2.80;74.35
66703;BME280;60933;46.398;-63.798;2022-11-20T04:19:27;101754.31;;;-2.77;75.83
66703;BME280;60933;46.398;-63.798;2022-11-20T04:21:53;101762.97;;;-2.72;75.25
66703;BME280;60933;46.398;-63.798;2022-11-20T04:24:19;101760.59;;;-2.68;77.11
66703;BME280;60933;46.398;-63.798;2022-11-20T04:26:45;101750.53;;;-2.67;76.50
66703;BME280;60933;46.398;-63.798;2022-11-20T04:29:11;101751.66;;;-2.60;78.46
66703;BME280;60933;46.398;-63.798;2022-11-20T04:31:37;101742.44;;;-2.60;77.35
66703;BME280;60933;46.398;-63.798;2022-11-20T04:34:05;101744.19;;;-2.59;77.04
66703;BME280;60933;46.398;-63.798;2022-11-20T04:36:32;101755.16;;;-2.58;74.63
66703;BME280;60933;46.398;-63.798;2022-11-20T04:39:04;101739.97;;;-2.58;75.23
66703;BME280;60933;46.398;-63.798;2022-11-20T04:41:33;101737.50;;;-2.57;76.09
66703;BME280;60933;46.398;-63.798;2022-11-20T04:44:00;101724.22;;;-2.52;76.34
66703;BME280;60933;46.398;-63.798;2022-11-20T04:46:36;101736.28;;;-2.47;76.95
66703;BME280;60933;46.398;-63.798;2022-11-20T04:49:03;101738.06;;;-2.44;77.07
66703;BME280;60933;46.398;-63.798;2022-11-20T04:51:29;101737.28;;;-2.43;77.62
66703;BME280;60933;46.398;-63.798;2022-11-20T04:53:56;101741.53;;;-2.42;77.63
66703;BME280;60933;46.398;-63.798;2022-11-20T04:56:22;101728.97;;;-2.41;77.17
66703;BME280;60933;46.398;-63.798;2022-11-20T04:58:49;101725.69;;;-2.38;77.52
66703;BME280;60933;46.398;-63.798;2022-11-20T05:01:18;101708.13;;;-2.35;78.39
66703;BME280;60933;46.398;-63.798;2022-11-20T05:03:44;101704.09;;;-2.31;79.75
66703;BME280;60933;46.398;-63.798;2022-11-20T05:06:13;101705.00;;;-2.29;79.71
66703;BME280;60933;46.398;-63.798;2022-11-20T05:08:39;101703.53;;;-2.24;80.10
66703;BME280;60933;46.398;-63.798;2022-11-20T05:11:08;101689.97;;;-2.26;80.55
66703;BME280;60933;46.398;-63.798;2022-11-20T05:13:35;101691.09;;;-2.19;80.55
66703;BME280;60933;46.398;-63.798;2022-11-20T05:16:06;101681.03;;;-2.18;81.38
66703;BME280;60933;46.398;-63.798;2022-11-20T05:18:34;101674.25;;;-2.19;81.23
66703;BME280;60933;46.398;-63.798;2022-11-20T05:21:00;101684.56;;;-2.14;81.03
66703;BME280;60933;46.398;-63.798;2022-11-20T05:23:28;101681.19;;;-2.15;81.48
66703;BME280;60933;46.398;-63.798;2022-11-20T05:25:56;101680.28;;;-2.15;81.08
66703;BME280;60933;46.398;-63.798;2022-11-20T05:28:23;101667.66;;;-2.15;81.10
66703;BME280;60933;46.398;-63.798;2022-11-20T05:30:49;101683.03;;;-2.11;80.86
66703;BME280;60933;46.398;-63.798;2022-11-20T05:33:16;101681.44;;;-2.09;81.63
66703;BME280;60933;46.398;-63.798;2022-11-20T05:35:43;101664.50;;;-2.10;81.24
66703;BME280;60933;46.398;-63.798;2022-11-20T05:38:09;101657.88;;;-2.08;82.22
66703;BME280;60933;46.398;-63.798;2022-11-20T05:40:35;101649.34;;;-2.10;82.05
66703;BME280;60933;46.398;-63.798;2022-11-20T05:43:01;101637.47;;;-2.11;82.11
66703;BME280;60933;46.398;-63.798;2022-11-20T05:45:27;101629.69;;;-2.15;82.02
66703;BME280;60933;46.398;-63.798;2022-11-20T05:47:58;101625.53;;;-2.15;82.19
66703;BME280;60933;46.398;-63.798;2022-11-20T05:50:26;101628.06;;;-2.15;81.48
66703;BME280;60933;46.398;-63.798;2022-11-20T05:52:52;101631.38;;;-2.16;81.75
66703;BME280;60933;46.398;-63.798;2022-11-20T05:55:18;101613.59;;;-2.17;81.49
66703;BME280;60933;46.398;-63.798;2022-11-20T05:57:44;101600.88;;;-2.19;81.33
66703;BME280;60933;46.398;-63.798;2022-11-20T06:00:10;101593.16;;;-2.22;80.41
66703;BME280;60933;46.398;-63.798;2022-11-20T06:02:36;101579.47;;;-2.27;80.18
66703;BME280;60933;46.398;-63.798;2022-11-20T06:05:03;101580.41;;;-2.25;80.16
66703;BME280;60933;46.398;-63.798;2022-11-20T06:07:29;101583.78;;;-2.25;79.71
66703;BME280;60933;46.398;-63.798;2022-11-20T06:09:54;101580.41;;;-2.25;78.38
66703;BME280;60933;46.398;-63.798;2022-11-20T06:12:21;101579.47;;;-2.27;78.83
66703;BME280;60933;46.398;-63.798;2022-11-20T06:14:46;101581.19;;;-2.26;78.30
66703;BME280;60933;46.398;-63.798;2022-11-20T06:17:13;101563.09;;;-2.35;77.59
66703;BME280;60933;46.398;-63.798;2022-11-20T06:19:39;101581.06;;;-2.29;77.19
66703;BME280;60933;46.398;-63.798;2022-11-20T06:22:06;101580.34;;;-2.27;76.54
66703;BME280;60933;46.398;-63.798;2022-11-20T06:24:32;101553.97;;;-2.32;77.38
66703;BME280;60933;46.398;-63.798;2022-11-20T06:26:57;101565.22;;;-2.25;77.09
66703;BME280;60933;46.398;-63.798;2022-11-20T06:29:23;101561.09;;;-2.23;76.97
66703;BME280;60933;46.398;-63.798;2022-11-20T15:50:16;100228.94;;;5.83;69.03
66703;BME280;60933;46.398;-63.798;2022-11-20T15:52:44;100219.34;;;5.99;68.23
66703;BME280;60933;46.398;-63.798;2022-11-20T15:58:00;100183.81;;;6.35;66.80
66703;BME280;60933;46.398;-63.798;2022-11-20T16:00:47;100187.78;;;6.52;66.57
66703;BME280;60933;46.398;-63.798;2022-11-20T16:03:15;100181.78;;;6.54;66.15
66703;BME280;60933;46.398;-63.798;2022-11-20T16:05:42;100162.94;;;6.55;66.04
66703;BME280;60933;46.398;-63.798;2022-11-20T16:08:08;100152.66;;;6.55;65.33
66703;BME280;60933;46.398;-63.798;2022-11-20T16:10:34;100144.91;;;6.60;65.61
66703;BME280;60933;46.398;-63.798;2022-11-20T16:13:01;100137.16;;;6.63;65.52
66703;BME280;60933;46.398;-63.798;2022-11-20T16:15:51;100142.22;;;6.68;65.36
66703;BME280;60933;46.398;-63.798;2022-11-20T16:18:20;100132.63;;;6.77;64.99
66703;BME280;60933;46.398;-63.798;2022-11-20T16:20:50;100117.75;;;6.95;64.69
66703;BME280;60933;46.398;-63.798;2022-11-20T16:23:16;100121.94;;;6.99;65.08
66703;BME280;60933;46.398;-63.798;2022-11-20T16:25:43;100122.00;;;6.96;63.80
66703;BME280;60933;46.398;-63.798;2022-11-20T16:28:10;100112.53;;;6.98;63.28
66703;BME280;60933;46.398;-63.798;2022-11-20T16:30:37;100111.66;;;6.99;63.14
66703;BME280;60933;46.398;-63.798;2022-11-20T16:33:04;100107.41;;;6.98;62.53
66703;BME280;60933;46.398;-63.798;2022-11-20T16:35:31;100106.53;;;6.99;62.64
66703;BME280;60933;46.398;-63.798;2022-11-20T16:37:58;100107.28;;;7.06;63.88
66703;BME280;60933;46.398;-63.798;2022-11-20T16:40:24;100100.94;;;7.21;62.39
66703;BME280;60933;46.398;-63.798;2022-11-20T16:42:51;100092.38;;;7.23;62.96
66703;BME280;60933;46.398;-63.798;2022-11-20T16:45:18;100075.13;;;7.28;62.26
66703;BME280;60933;46.398;-63.798;2022-11-20T16:47:44;100075.00;;;7.35;61.08
66703;BME280;60933;46.398;-63.798;2022-11-20T16:50:10;100078.75;;;7.57;59.12
66703;BME280;60933;46.398;-63.798;2022-11-20T16:52:36;100060.97;;;7.50;58.86
66703;BME280;60933;46.398;-63.798;2022-11-20T16:55:03;100071.25;;;7.50;59.91
66703;BME280;60933;46.398;-63.798;2022-11-20T16:57:30;100075.72;;;7.78;60.06
66703;BME280;60933;46.398;-63.798;2022-11-20T16:59:58;100051.72;;;7.79;56.07
66703;BME280;60933;46.398;-63.798;2022-11-20T17:02:25;100027.56;;;7.86;53.44
66703;BME280;60933;46.398;-63.798;2022-11-20T17:04:52;100034.50;;;7.82;50.93
66703;BME280;60933;46.398;-63.798;2022-11-20T17:07:18;100018.16;;;7.85;52.86
66703;BME280;60933;46.398;-63.798;2022-11-20T17:09:48;100031.94;;;7.82;51.06
66703;BME280;60933;46.398;-63.798;2022-11-20T17:12:14;100011.59;;;7.73;52.07
66703;BME280;60933;46.398;-63.798;2022-11-20T17:14:43;100038.28;;;7.67;50.44
66703;BME280;60933;46.398;-63.798;2022-11-20T17:17:09;100038.53;;;7.58;46.74
66703;BME280;60933;46.398;-63.798;2022-11-20T17:19:35;100033.81;;;7.39;43.67
66703;BME280;60933;46.398;-63.798;2022-11-20T17:22:01;100022.72;;;7.39;44.79
66703;BME280;60933;46.398;-63.798;2022-11-20T17:24:28;100015.94;;;7.35;45.43
66703;BME280;60933;46.398;-63.798;2022-11-20T17:26:54;100009.88;;;7.37;48.39
66703;BME280;60933;46.398;-63.798;2022-11-20T17:29:20;100011.88;;;7.24;45.61
66703;BME280;60933;46.398;-63.798;2022-11-20T17:31:49;100015.63;;;7.11;46.11
66703;BME280;60933;46.398;-63.798;2022-11-20T17:34:16;100009.22;;;7.29;50.04
66703;BME280;60933;46.398;-63.798;2022-11-20T17:36:43;100002.38;;;7.28;46.30
66703;BME280;60933;46.398;-63.798;2022-11-20T17:39:14;99998.00;;;7.33;48.17
66703;BME280;60933;46.398;-63.798;2022-11-20T17:41:40;99999.81;;;7.28;47.61
66703;BME280;60933;46.398;-63.798;2022-11-20T17:44:09;99978.75;;;7.15;47.22
66703;BME280;60933;46.398;-63.798;2022-11-20T17:46:35;99975.47;;;7.08;46.31
66703;BME280;60933;46.398;-63.798;2022-11-20T17:49:02;100006.56;;;6.94;51.75
66703;BME280;60933;46.398;-63.798;2022-11-20T17:51:30;100001.75;;;6.80;54.37
66703;BME280;60933;46.398;-63.798;2022-11-20T17:53:59;99998.66;;;6.63;56.08
66703;BME280;60933;46.398;-63.798;2022-11-20T17:56:29;99982.47;;;6.61;55.68
66703;BME280;60933;46.398;-63.798;2022-11-20T17:59:14;99973.16;;;6.57;56.35
66703;BME280;60933;46.398;-63.798;2022-11-20T18:01:40;99994.81;;;6.43;55.94
66703;BME280;60933;46.398;-63.798;2022-11-20T18:04:07;99996.50;;;6.43;56.16
66703;BME280;60933;46.398;-63.798;2022-11-20T18:06:34;99995.06;;;6.29;56.10
66703;BME280;60933;46.398;-63.798;2022-11-20T18:09:04;99976.22;;;6.32;56.66
66703;BME280;60933;46.398;-63.798;2022-11-20T18:11:36;99975.53;;;6.22;54.29
66703;BME280;60933;46.398;-63.798;2022-11-20T18:14:05;99982.66;;;6.06;54.55
66703;BME280;60933;46.398;-63.798;2022-11-20T18:16:55;99991.13;;;6.10;53.61
66703;BME280;60933;46.398;-63.798;2022-11-20T18:19:24;100002.50;;;5.95;52.29
66703;BME280;60933;46.398;-63.798;2022-11-20T18:21:51;99989.88;;;5.82;51.32
66703;BME280;60933;46.398;-63.798;2022-11-20T18:24:17;99969.69;;;5.67;50.78
66703;BME280;60933;46.398;-63.798;2022-11-20T18:26:43;99972.28;;;5.64;52.10
66703;BME280;60933;46.398;-63.798;2022-11-20T18:29:10;99966.34;;;5.62;51.27
66703;BME280;60933;46.398;-63.798;2022-11-20T18:31:37;99982.66;;;5.54;51.01
66703;BME280;60933;46.398;-63.798;2022-11-20T18:34:21;99959.63;;;5.54;51.32
66703;BME280;60933;46.398;-63.798;2022-11-20T18:36:47;99970.69;;;5.57;51.51
66703;BME280;60933;46.398;-63.798;2022-11-20T18:39:14;99966.41;;;5.57;50.31
66703;BME280;60933;46.398;-63.798;2022-11-20T18:41:46;99964.09;;;5.43;48.13
66703;BME280;60933;46.398;-63.798;2022-11-20T18:44:31;99953.94;;;5.37;49.26
66703;BME280;60933;46.398;-63.798;2022-11-20T18:47:22;99967.09;;;5.14;48.01
66703;BME280;60933;46.398;-63.798;2022-11-20T18:49:53;99982.00;;;4.84;46.39
66703;BME280;60933;46.398;-63.798;2022-11-20T18:52:26;99956.69;;;4.64;46.77
66703;BME280;60933;46.398;-63.798;2022-11-20T18:54:54;99964.66;;;4.40;48.12
66703;BME280;60933;46.398;-63.798;2022-11-20T18:57:23;99962.34;;;4.17;47.07
66703;BME280;60933;46.398;-63.798;2022-11-20T18:59:50;99970.94;;;4.13;49.02
66703;BME280;60933;46.398;-63.798;2022-11-20T19:02:20;99968.41;;;4.10;49.89
66703;BME280;60933;46.398;-63.798;2022-11-20T19:04:47;99992.28;;;4.06;48.17
66703;BME280;60933;46.398;-63.798;2022-11-20T19:07:14;99946.47;;;3.90;47.27
66703;BME280;60933;46.398;-63.798;2022-11-20T19:09:42;99941.53;;;3.75;46.72
66703;BME280;60933;46.398;-63.798;2022-11-20T19:12:10;99936.56;;;3.56;46.40
66703;BME280;60933;46.398;-63.798;2022-11-20T19:14:36;99957.91;;;3.46;46.21
66703;BME280;60933;46.398;-63.798;2022-11-20T19:17:05;99948.63;;;3.39;49.91
66703;BME280;60933;46.398;-63.798;2022-11-20T19:19:33;99973.34;;;3.30;49.00
66703;BME280;60933;46.398;-63.798;2022-11-20T19:21:59;99949.59;;;3.25;49.26
66703;BME280;60933;46.398;-63.798;2022-11-20T19:24:26;99944.47;;;3.27;50.72
66703;BME280;60933;46.398;-63.798;2022-11-20T19:26:53;99929.97;;;3.33;50.30
66703;BME280;60933;46.398;-63.798;2022-11-20T19:29:21;99930.03;;;3.27;50.73
66703;BME280;60933;46.398;-63.798;2022-11-20T19:31:47;99923.13;;;3.39;51.89
66703;BME280;60933;46.398;-63.798;2022-11-20T19:34:14;99922.28;;;3.38;47.91
66703;BME280;60933;46.398;-63.798;2022-11-20T19:36:41;99918.06;;;3.32;50.53
66703;BME280;60933;46.398;-63.798;2022-11-20T19:39:08;99932.63;;;3.21;48.21
66703;BME280;60933;46.398;-63.798;2022-11-20T19:41:37;99946.31;;;3.06;46.17
66703;BME280;60933;46.398;-63.798;2022-11-20T19:44:05;99931.94;;;2.97;49.50
66703;BME280;60933;46.398;-63.798;2022-11-20T19:46:33;99917.56;;;2.87;48.53
66703;BME280;60933;46.398;-63.798;2022-11-20T19:49:00;99926.06;;;2.81;48.41
66703;BME280;60933;46.398;-63.798;2022-11-20T19:51:28;99933.81;;;2.66;48.81
66703;BME280;60933;46.398;-63.798;2022-11-20T19:53:56;99928.72;;;2.64;51.00
66703;BME280;60933;46.398;-63.798;2022-11-20T19:56:23;99920.25;;;2.61;51.29
66703;BME280;60933;46.398;-63.798;2022-11-20T19:58:49;99946.59;;;2.55;50.74
66703;BME280;60933;46.398;-63.798;2022-11-20T20:01:20;99923.69;;;2.57;51.42
66703;BME280;60933;46.398;-63.798;2022-11-20T20:03:47;99912.69;;;2.45;51.72
66703;BME280;60933;46.398;-63.798;2022-11-20T20:06:24;99911.06;;;2.32;52.27
66703;BME280;60933;46.398;-63.798;2022-11-20T20:08:59;99920.38;;;2.37;54.25
66703;BME280;60933;46.398;-63.798;2022-11-20T20:11:27;99919.53;;;2.31;51.91
66703;BME280;60933;46.398;-63.798;2022-11-20T20:13:53;99917.03;;;2.20;53.04
66703;BME280;60933;46.398;-63.798;2022-11-20T20:16:22;99933.19;;;2.13;54.48
66703;BME280;60933;46.398;-63.798;2022-11-20T20:18:53;99942.56;;;2.03;53.51
66703;BME280;60933;46.398;-63.798;2022-11-20T20:21:20;99923.06;;;1.94;55.10
66703;BME280;60933;46.398;-63.798;2022-11-20T20:23:53;99931.59;;;1.84;53.83
66703;BME280;60933;46.398;-63.798;2022-11-20T20:26:21;99924.78;;;1.80;54.33
66703;BME280;60933;46.398;-63.798;2022-11-20T20:28:47;99909.53;;;1.70;53.24
66703;BME280;60933;46.398;-63.798;2022-11-20T20:31:17;99912.94;;;1.58;52.73
66703;BME280;60933;46.398;-63.798;2022-11-20T20:33:44;99921.44;;;1.56;54.26
66703;BME280;60933;46.398;-63.798;2022-11-20T20:36:11;99936.72;;;1.53;54.81
66703;BME280;60933;46.398;-63.798;2022-11-20T20:38:39;99914.66;;;1.42;52.31
66703;BME280;60933;46.398;-63.798;2022-11-20T20:41:07;99915.53;;;1.35;51.15
66703;BME280;60933;46.398;-63.798;2022-11-20T20:43:33;99927.41;;;1.30;52.80
66703;BME280;60933;46.398;-63.798;2022-11-20T20:46:19;99913.81;;;1.23;51.76
66703;BME280;60933;46.398;-63.798;2022-11-20T20:48:45;99918.91;;;1.22;55.41
66703;BME280;60933;46.398;-63.798;2022-11-20T20:51:11;99897.72;;;1.14;55.31
66703;BME280;60933;46.398;-63.798;2022-11-20T20:53:38;99902.81;;;1.18;53.91
66703;BME280;60933;46.398;-63.798;2022-11-20T20:56:04;99902.81;;;1.14;53.07
66703;BME280;60933;46.398;-63.798;2022-11-20T20:58:30;99889.22;;;1.08;53.66
66703;BME280;60933;46.398;-63.798;2022-11-20T21:01:05;99897.72;;;1.04;54.09
66703;BME280;60933;46.398;-63.798;2022-11-20T21:03:33;99917.19;;;0.98;54.77
66703;BME280;60933;46.398;-63.798;2022-11-20T21:05:59;99901.94;;;0.96;54.93
66703;BME280;60933;46.398;-63.798;2022-11-20T21:08:26;99896.84;;;0.90;55.62
66703;BME280;60933;46.398;-63.798;2022-11-20T21:11:13;99892.59;;;0.86;55.23
66703;BME280;60933;46.398;-63.798;2022-11-20T21:13:41;99903.63;;;0.83;54.76
66703;BME280;60933;46.398;-63.798;2022-11-20T21:16:08;99919.72;;;0.81;56.84
66703;BME280;60933;46.398;-63.798;2022-11-20T21:18:35;99927.31;;;0.77;57.35
66703;BME280;60933;46.398;-63.798;2022-11-20T21:21:10;99925.63;;;0.72;58.08
66703;BME280;60933;46.398;-63.798;2022-11-20T21:23:55;99934.91;;;0.57;60.48
66703;BME280;60933;46.398;-63.798;2022-11-20T21:26:21;99946.72;;;0.44;60.91
66703;BME280;60933;46.398;-63.798;2022-11-20T21:28:48;99934.81;;;0.37;58.31
66703;BME280;60933;46.398;-63.798;2022-11-20T21:31:19;99916.16;;;0.26;57.78
66703;BME280;60933;46.398;-63.798;2022-11-20T21:33:55;99943.19;;;0.14;58.25
66703;BME280;60933;46.398;-63.798;2022-11-20T21:36:23;99924.53;;;0.06;58.26
66703;BME280;60933;46.398;-63.798;2022-11-20T21:38:51;99964.25;;;0.01;58.42
66703;BME280;60933;46.398;-63.798;2022-11-20T21:41:18;99931.19;;;-0.11;59.14
66703;BME280;60933;46.398;-63.798;2022-11-20T21:43:45;99960.81;;;-0.10;59.69
66703;BME280;60933;46.398;-63.798;2022-11-20T21:46:12;99979.38;;;-0.16;59.38
66703;BME280;60933;46.398;-63.798;2022-11-20T21:48:40;99956.50;;;-0.21;58.99
66703;BME280;60933;46.398;-63.798;2022-11-20T21:51:14;99935.34;;;-0.23;60.46
66703;BME280;60933;46.398;-63.798;2022-11-20T21:53:42;99937.88;;;-0.26;59.14
66703;BME280;60933;46.398;-63.798;2022-11-20T21:56:09;99975.94;;;-0.24;59.91
66703;BME280;60933;46.398;-63.798;2022-11-20T21:58:37;99942.94;;;-0.26;60.19
66703;BME280;60933;46.398;-63.798;2022-11-20T22:01:14;99926.00;;;-0.30;60.59
66703;BME280;60933;46.398;-63.798;2022-11-20T22:03:40;99931.91;;;-0.36;60.31